Weather observations for the past three days for
Palmdale, Palmdale Production Flight Plant
Imperial (Metric)
Date Time (pdt) Wind (mph) Vis. (mi.) Weather Sky Cond. Temperature (ºF) Relative Humidity Wind Chill (°F) Heat Index (°F) Pressure Precipitation (in)
Air Dwpt 6 hour altimeter (in) sea level (mb) 1 hr 3 hr 6 hr
Max. Min.
02 14:53 S 12 G 26 10.00 Fair CLR 87.1 28 12% 83 29.88 1009.5
02 13:53 S 18 G 25 10.00 Fair CLR 86 28 12% 83 29.9 1010.0
02 12:53 Vrbl 3 10.00 Fair CLR 82.9 28 13% 80 29.93 1011.2
02 11:53 Vrbl 5 10.00 Fair CLR 81 28 14% 79 29.97 1012.3
02 10:53 N 6 10.00 Fair CLR 77 30.9 78.1 51.1 18% 77 29.98 1013.1
02 09:53 Vrbl 5 10.00 Fair CLR 73 34 24% 29.99 1013.3
02 08:53 NW 6 10.00 Fair CLR 66.9 36 32% 29.99 1013.6
02 07:53 NW 6 10.00 Fair CLR 62.1 36 38% 29.99 1013.5
02 06:53 Calm 10.00 Fair CLR 54 28.9 38% 29.98 1013.3
02 05:53 NW 5 10.00 Fair CLR 53.1 27 37% 29.96 1012.3
02 04:53 SE 5 10.00 Fair CLR 55 26.1 66 54 33% 29.95 1011.9
02 03:53 S 8 10.00 Fair CLR 57 27 32% 29.95 1011.8
02 02:53 S 8 10.00 Fair CLR 57.9 25 28% 29.95 1011.7
02 01:53 S 8 10.00 Fair CLR 62.1 30.9 31% 29.95 1011.8
02 00:53 S 10 10.00 Fair CLR 62.1 32 32% 29.98 1012.6
01 23:53 S 10 10.00 Fair CLR 62.1 28 28% 29.96 1012.3
01 22:53 SW 7 10.00 Fair CLR 62.1 32 84 61 32% 29.96 1012.3
01 21:53 N 5 10.00 Fair CLR 68 33.1 27% 29.96 1012.1
01 20:53 W 9 10.00 Fair CLR 70 39.9 34% 29.93 1011.2
01 19:53 SW 14 10.00 Fair CLR 73.9 39 28% 29.9 1010.2
01 18:53 SW 14 G 23 10.00 Fair CLR 78.1 35.1 21% 78 29.88 1009.9
01 17:53 SW 17 10.00 Fair CLR 82 39.9 22% 80 29.88 1009.7
01 16:53 SW 22 G 28 10.00 Fair and Breezy CLR 84 39 86 79 20% 81 29.87 1009.4
01 15:53 SW 9 10.00 Fair CLR 84 25 11% 81 29.89 1010.1
01 14:53 NW 8 10.00 Fair CLR 84.9 26.1 12% 82 29.92 1010.8
01 13:53 Vrbl 3 10.00 Fair CLR 84 27 12% 81 29.93 1011.3
01 12:53 N 8 G 16 10.00 Fair CLR 84 27 12% 81 29.95 1011.8
01 11:53 Vrbl 3 10.00 Fair CLR 82 30 15% 80 29.97 1012.8
01 10:53 NE 9 10.00 Fair CLR 80.1 33.1 80.1 52 18% 79 29.99 1013.2
01 09:53 Vrbl 3 10.00 Fair CLR 75 37 25% 77 29.99 1013.5
01 08:53 Calm 10.00 Fair CLR 72 37 28% 29.99 1013.4
01 07:53 S 5 10.00 Fair CLR 64.9 37 36% 29.99 1013.3
01 06:53 S 3 10.00 Fair CLR 55.9 39 53% 29.97 1013.0
01 05:53 S 9 10.00 Fair CLR 53.1 36 52% 29.95 1012.0
01 04:53 S 9 10.00 Fair CLR 54 37 62.1 52 53% 29.94 1011.7
01 03:53 S 8 10.00 Fair CLR 54 37.9 55% 29.94 1011.6
01 02:53 SW 8 10.00 Fair CLR 57 37 47% 29.93 1011.4
01 01:53 S 8 10.00 Fair CLR 57 36 45% 29.94 1011.5
01 00:53 SW 9 10.00 Fair CLR 59 37.9 46% 29.94 1011.5
30 23:53 SW 10 10.00 Fair CLR 60.1 39.9 48% 29.93 1011.5
30 22:53 S 8 10.00 Fair CLR 61 42.1 82.9 61 50% 29.93 1011.3
30 21:53 SW 7 10.00 Fair CLR 63 43 48% 29.91 1011.0
30 20:53 SW 7 10.00 Fair CLR 66.9 43 42% 29.9 1010.4
30 19:53 SW 9 10.00 Fair CLR 71.1 41 34% 29.87 1009.6
30 18:53 W 22 G 31 10.00 Fair and Breezy CLR 75.9 39 26% 77 29.84 1008.7
30 17:53 W 17 G 26 10.00 Fair CLR 81 39 22% 79 29.83 1008.2
30 16:53 NW 14 G 18 10.00 Fair CLR 82.9 25 84 73.9 12% 80 29.83 1008.2
30 15:53 NE 9 10.00 Fair CLR 82.9 19.9 10% 80 29.84 1008.5
30 14:53 E 8 10.00 Fair CLR 82.9 26.1 12% 80 29.86 1009.0
30 13:53 NE 10 G 17 10.00 Fair CLR 82 25 12% 80 29.88 1009.7
30 12:53 NE 12 G 20 10.00 Fair CLR 80.1 26.1 14% 78 29.9 1010.4
30 11:53 N 8 10.00 Fair CLR 77 30.9 18% 77 29.92 1011.3
30 10:53 NE 8 10.00 Fair CLR 73.9 35.1 73.9 48 24% 29.94 1012.1
30 09:53 Calm 10.00 Fair CLR 69.1 37 31% 29.95 1012.6
30 08:53 Calm 10.00 Fair CLR 64.9 37 36% 29.96 1012.6
30 07:53 Calm 10.00 Fair CLR 61 39 44% 29.96 1012.7
30 06:53 S 5 10.00 Fair CLR 53.1 37.9 57% 29.94 1012.5
30 05:53 S 9 10.00 Fair CLR 48.9 37 64% 45 29.93 1012.0
30 04:53 S 9 10.00 Fair CLR 48.9 36 57.9 48.9 61% 45 29.94 1012.1
30 03:53 S 9 10.00 Fair CLR 50 35.1 57% 47 29.95 1012.3
30 02:53 SW 8 10.00 Fair CLR 50 35.1 57% 47 29.96 1012.7
30 01:53 S 6 10.00 Fair CLR 53.1 36 52% 29.98 1013.2
30 00:53 SW 8 10.00 Fair CLR 55.9 37 49% 29.97 1013.0
29 23:53 S 5 10.00 Fair CLR 55.9 35.1 46% 29.99 1013.7
29 22:53 SW 10 10.00 Fair CLR 57.9 35.1 78.1 55.9 42% 29.99 1014.0
29 21:53 SW 7 10.00 Fair CLR 57 37 47% 30 1014.4
29 20:53 NW 6 10.00 Fair CLR 62.1 39 43% 29.98 1013.9
29 19:53 SW 12 10.00 Fair CLR 64.9 39 39% 29.95 1012.6
29 18:53 SW 20 10.00 Fair CLR 69.1 39.9 35% 29.93 1012.3
29 17:53 SW 17 10.00 Fair CLR 75 37 25% 77 29.92 1011.9
29 16:53 W 14 G 24 10.00 Fair CLR 78.1 33.1 79 66.9 19% 77 29.92 1011.8
29 15:53 W 6 10.00 Fair CLR 77 27 16% 77 29.95 1012.7
Date Time (pdt) Wind (mph) Vis. (mi.) Weather Sky Cond. Air Dwpt Max. Min. Relative Humidity Wind Chill (°F) Heat Index (°F) altimeter (in) sea level (mb) 1 hr 3 hr 6 hr
6 hour
Temperature (ºF) Pressure Precipitation (in)